Time;durP1;ratioP1;P1;durP2;ratioP2;P2;SDS_P1;SDS_P2;PMS_P1;PMS_P2;Temp;Humidity;BMP_temperature;BMP_pressure;BME280_temperature;BME280_humidity;BME280_pressure;Samples;Min_cycle;Max_cycle;Signal;HPM_P1;HPM_P2
2024/01/01 00:02:21;;;;;;;84.05;43.95;;;11.80;99.90;;;;;;4906626;29;20035;-88
2024/01/01 00:04:47;;;;;;;86.75;45.83;;;11.80;99.90;;;;;;4906140;29;20102;-88
2024/01/01 00:07:14;;;;;;;89.88;48.38;;;11.90;99.90;;;;;;4938124;29;20075;-88
2024/01/01 00:09:40;;;;;;;94.13;48.88;;;11.90;99.90;;;;;;4937831;29;20401;-88
2024/01/01 00:12:11;;;;;;;98.93;48.25;;;11.90;99.90;;;;;;4938128;29;20389;-88
2024/01/01 00:14:38;;;;;;;94.70;48.17;;;11.90;99.90;;;;;;4937898;29;20126;-88
2024/01/01 00:17:04;;;;;;;104.47;47.58;;;11.90;99.90;;;;;;4938039;29;20034;-87
2024/01/01 00:19:30;;;;;;;94.00;46.97;;;12.00;99.90;;;;;;4937796;29;20035;-88
2024/01/01 00:21:57;;;;;;;104.75;47.53;;;12.00;99.90;;;;;;4937975;29;20039;-88
2024/01/01 00:24:23;;;;;;;95.78;47.05;;;12.00;99.90;;;;;;4937856;29;20102;-88
2024/01/01 00:26:50;;;;;;;101.78;47.17;;;12.00;99.90;;;;;;4943104;29;20035;-87
2024/01/01 00:29:16;;;;;;;116.32;50.47;;;12.00;99.90;;;;;;4957304;29;20039;-88
2024/01/01 00:31:44;;;;;;;96.13;47.83;;;12.00;99.90;;;;;;4972373;28;20051;-87
2024/01/01 00:34:11;;;;;;;99.13;52.03;;;12.10;99.90;;;;;;4979847;28;20042;-88
2024/01/01 00:36:38;;;;;;;98.18;50.97;;;12.10;99.90;;;;;;4960554;28;20031;-89
2024/01/01 00:39:09;;;;;;;93.35;48.70;;;12.10;99.90;;;;;;4973143;28;20098;-88
2024/01/01 00:41:45;;;;;;;91.57;47.78;;;12.20;99.90;;;;;;4957393;29;20115;-88
2024/01/01 00:44:12;;;;;;;105.93;51.20;;;12.10;99.90;;;;;;4957365;29;20043;-87
2024/01/01 00:46:38;;;;;;;95.13;47.25;;;12.10;99.90;;;;;;4960236;28;20027;-88
2024/01/01 00:49:07;;;;;;;87.60;46.22;;;12.10;99.90;;;;;;4956631;29;20074;-88
2024/01/01 00:51:34;;;;;;;96.53;49.22;;;12.10;99.90;;;;;;4973698;28;20090;-86
2024/01/01 00:54:01;;;;;;;91.50;46.53;;;12.10;99.90;;;;;;4964060;28;20089;-86
2024/01/01 00:56:28;;;;;;;93.55;47.05;;;12.10;99.90;;;;;;4961109;28;20041;-86
2024/01/01 00:58:54;;;;;;;84.28;43.15;;;12.10;99.90;;;;;;4976292;28;20027;-89
2024/01/01 01:01:24;;;;;;;81.18;44.58;;;12.10;99.90;;;;;;4977180;28;20023;-86
2024/01/01 01:03:50;;;;;;;80.38;44.97;;;12.10;99.90;;;;;;4971178;28;20043;-89
2024/01/01 01:06:16;;;;;;;75.38;42.13;;;12.20;99.90;;;;;;4940943;29;20032;-86
2024/01/01 01:08:43;;;;;;;68.53;40.53;;;12.20;99.90;;;;;;4956775;29;20408;-88
2024/01/01 01:11:09;;;;;;;71.57;38.97;;;12.30;99.90;;;;;;4940924;29;20027;-87
2024/01/01 01:13:35;;;;;;;65.95;39.88;;;12.30;99.90;;;;;;4957229;29;20038;-87
2024/01/01 01:16:05;;;;;;;71.28;40.80;;;12.30;99.90;;;;;;4940814;29;20020;-87
2024/01/01 01:18:32;;;;;;;68.38;38.63;;;12.30;99.90;;;;;;4964838;28;20027;-87
2024/01/01 01:20:58;;;;;;;61.28;35.40;;;12.40;99.90;;;;;;4975854;28;20034;-87
2024/01/01 01:23:25;;;;;;;59.72;36.55;;;12.40;99.90;;;;;;4975951;28;20031;-87
2024/01/01 01:25:51;;;;;;;58.85;37.08;;;12.50;99.90;;;;;;4975822;28;20027;-87
2024/01/01 01:28:22;;;;;;;55.88;35.70;;;12.50;99.90;;;;;;4975622;28;20034;-87
2024/01/01 01:30:48;;;;;;;59.10;35.03;;;12.50;99.90;;;;;;4959311;28;20448;-88
2024/01/01 01:33:16;;;;;;;59.03;35.50;;;12.50;99.90;;;;;;4959660;28;20488;-87
2024/01/01 01:35:43;;;;;;;59.40;36.28;;;12.50;99.90;;;;;;4975404;28;20117;-87
2024/01/01 01:38:09;;;;;;;60.70;36.00;;;12.40;99.90;;;;;;4975500;28;20053;-88
2024/01/01 01:40:36;;;;;;;53.55;34.83;;;12.30;99.90;;;;;;4969983;28;20035;-88
2024/01/01 01:43:02;;;;;;;52.92;34.88;;;12.30;99.90;;;;;;4958738;28;20126;-87
2024/01/01 01:45:29;;;;;;;54.55;36.00;;;12.30;99.90;;;;;;4975411;28;20118;-88
2024/01/01 01:47:55;;;;;;;51.60;35.83;;;12.30;99.90;;;;;;4975610;28;20031;-88
2024/01/01 01:50:22;;;;;;;51.30;35.42;;;12.40;99.90;;;;;;4975545;28;20058;-87
2024/01/01 01:52:49;;;;;;;59.00;35.42;;;12.30;99.90;;;;;;4975352;28;20473;-87
2024/01/01 01:55:22;;;;;;;50.78;33.50;;;12.30;99.90;;;;;;4975191;28;20031;-88
2024/01/01 01:57:49;;;;;;;49.47;32.63;;;12.30;99.90;;;;;;4975361;28;20054;-88
2024/01/01 02:00:15;;;;;;;44.10;32.05;;;12.40;99.90;;;;;;4975173;28;20027;-87
2024/01/01 02:02:43;;;;;;;46.00;31.33;;;12.40;99.90;;;;;;4975263;28;20054;-87
2024/01/01 02:05:09;;;;;;;44.33;32.15;;;12.50;99.90;;;;;;4958504;28;20038;-88
2024/01/01 02:07:36;;;;;;;50.40;34.88;;;12.50;99.90;;;;;;4956108;29;20142;-87
2024/01/01 02:10:02;;;;;;;52.92;35.05;;;12.60;99.90;;;;;;4955912;29;20180;-87
2024/01/01 02:12:29;;;;;;;49.95;34.03;;;12.60;99.90;;;;;;4971824;28;20027;-87
2024/01/01 02:14:55;;;;;;;50.42;34.40;;;12.60;99.90;;;;;;4971942;28;20026;-87
2024/01/01 02:17:23;;;;;;;62.05;36.60;;;12.60;99.90;;;;;;4955670;29;20035;-88
2024/01/01 02:19:51;;;;;;;61.47;37.83;;;12.70;99.90;;;;;;4955328;29;20027;-88
2024/01/01 02:22:17;;;;;;;55.38;35.72;;;12.60;99.90;;;;;;4955471;29;20038;-88
2024/01/01 02:24:43;;;;;;;58.25;35.55;;;12.60;99.90;;;;;;4955379;29;20041;-87
2024/01/01 02:27:10;;;;;;;53.75;35.95;;;12.60;99.90;;;;;;4958363;28;20118;-85
2024/01/01 02:29:36;;;;;;;57.25;36.72;;;12.60;99.90;;;;;;4974799;28;20060;-88
2024/01/01 02:32:03;;;;;;;60.58;37.13;;;12.60;99.90;;;;;;4990402;28;20114;-85
2024/01/01 02:34:29;;;;;;;62.75;37.65;;;12.70;99.90;;;;;;4965359;28;20049;-87
2024/01/01 02:36:59;;;;;;;58.10;36.65;;;12.70;99.90;;;;;;4971218;28;20151;-85
2024/01/01 02:39:25;;;;;;;63.45;37.55;;;12.60;99.90;;;;;;4954578;29;20027;-86
2024/01/01 02:41:52;;;;;;;59.10;36.80;;;12.50;99.90;;;;;;4954852;29;20031;-86
2024/01/01 02:44:19;;;;;;;68.28;36.50;;;12.50;99.90;;;;;;4937696;29;20043;-87
2024/01/01 02:46:46;;;;;;;61.80;36.53;;;12.40;99.90;;;;;;4970604;28;20027;-87
2024/01/01 02:49:13;;;;;;;58.22;36.67;;;12.40;99.90;;;;;;4951749;29;20027;-88
2024/01/01 02:51:43;;;;;;;58.05;35.40;;;12.30;99.90;;;;;;4938268;29;20086;-88
2024/01/01 02:54:10;;;;;;;53.30;35.58;;;12.20;99.90;;;;;;4970189;28;20110;-87
2024/01/01 02:56:38;;;;;;;59.88;35.92;;;12.20;99.90;;;;;;4954377;28;20031;-88
2024/01/01 02:59:05;;;;;;;59.00;35.13;;;12.10;99.90;;;;;;4970201;28;20027;-89
2024/01/01 03:01:31;;;;;;;58.70;36.38;;;12.00;99.90;;;;;;4938771;29;20024;-88
2024/01/01 03:03:58;;;;;;;69.05;37.28;;;12.00;99.90;;;;;;4955026;29;20058;-89
2024/01/01 03:06:25;;;;;;;59.65;36.33;;;12.00;99.90;;;;;;4938780;29;20118;-89
2024/01/01 03:08:51;;;;;;;58.60;35.17;;;12.00;99.90;;;;;;4955150;29;20028;-89
2024/01/01 03:11:18;;;;;;;56.97;35.63;;;11.90;99.90;;;;;;4936497;29;20031;-88
2024/01/01 03:13:50;;;;;;;57.70;34.80;;;11.90;99.90;;;;;;4935796;29;20486;-89
2024/01/01 03:16:17;;;;;;;64.20;33.95;;;11.80;99.90;;;;;;4935811;29;20490;-88
2024/01/01 03:18:43;;;;;;;58.38;33.83;;;11.80;99.90;;;;;;4936842;29;20061;-89
2024/01/01 03:21:09;;;;;;;63.58;35.35;;;11.70;99.90;;;;;;4935617;29;20036;-89
2024/01/01 03:23:36;;;;;;;63.15;34.17;;;11.70;99.90;;;;;;4938197;29;20186;-88
2024/01/01 03:26:03;;;;;;;61.30;34.38;;;11.60;99.90;;;;;;4937480;29;20568;-89
2024/01/01 03:28:29;;;;;;;60.17;33.47;;;11.60;99.90;;;;;;4935530;29;20031;-89
2024/01/01 03:30:57;;;;;;;59.92;33.97;;;11.40;99.90;;;;;;4935019;29;20032;-90
2024/01/01 03:33:23;;;;;;;58.85;34.80;;;11.50;99.90;;;;;;4935694;29;20024;-88
2024/01/01 03:35:49;;;;;;;62.33;35.83;;;11.50;99.90;;;;;;4959368;28;20039;-88
2024/01/01 03:38:16;;;;;;;77.53;35.85;;;11.50;99.90;;;;;;4973940;28;20038;-88
2024/01/01 03:40:42;;;;;;;61.88;34.58;;;11.60;99.90;;;;;;4974035;28;20127;-89
2024/01/01 03:43:08;;;;;;;54.08;34.25;;;11.50;99.90;;;;;;4974178;28;20070;-89
2024/01/01 03:45:36;;;;;;;56.03;33.97;;;11.50;99.90;;;;;;4990095;28;20118;-88
2024/01/01 03:48:03;;;;;;;63.25;33.78;;;11.50;99.90;;;;;;4969499;28;20030;-88
2024/01/01 03:50:29;;;;;;;55.40;33.17;;;11.50;99.90;;;;;;4954468;29;20397;-88
2024/01/01 03:52:56;;;;;;;59.08;33.42;;;11.50;99.90;;;;;;4954604;29;20087;-88
2024/01/01 03:55:22;;;;;;;60.60;32.53;;;11.40;99.90;;;;;;4954612;29;20034;-88
2024/01/01 03:57:48;;;;;;;62.42;34.00;;;11.40;99.90;;;;;;4954568;29;20024;-89
2024/01/01 04:00:15;;;;;;;58.00;33.22;;;11.40;99.90;;;;;;4954614;29;20027;-89
2024/01/01 04:02:41;;;;;;;70.60;33.78;;;11.40;99.90;;;;;;4954698;29;20147;-89
2024/01/01 04:05:10;;;;;;;64.50;33.28;;;11.40;99.90;;;;;;4954375;29;20126;-89
2024/01/01 04:07:37;;;;;;;59.03;32.67;;;11.40;99.90;;;;;;4957879;28;20031;-88
2024/01/01 04:10:05;;;;;;;65.93;33.70;;;11.30;99.90;;;;;;4958008;29;20133;-89
2024/01/01 04:12:31;;;;;;;58.88;34.65;;;11.30;99.90;;;;;;4958105;29;20027;-88
2024/01/01 04:14:58;;;;;;;53.65;33.13;;;11.40;99.90;;;;;;4959521;29;20464;-89
2024/01/01 04:17:24;;;;;;;62.58;34.50;;;11.50;99.90;;;;;;4975462;28;20027;-88
2024/01/01 04:19:51;;;;;;;59.28;34.95;;;11.60;99.90;;;;;;4965362;29;20119;-87
2024/01/01 04:22:18;;;;;;;64.10;35.65;;;11.70;99.90;;;;;;4965099;29;20030;-88
2024/01/01 04:24:45;;;;;;;58.92;35.45;;;11.70;99.90;;;;;;4962888;28;20043;-88
2024/01/01 04:27:11;;;;;;;47.50;34.08;;;11.70;99.90;;;;;;4977309;28;20027;-88
2024/01/01 04:29:41;;;;;;;53.60;35.22;;;11.70;99.90;;;;;;4977129;28;20042;-88
2024/01/01 04:32:10;;;;;;;59.85;34.58;;;11.70;99.90;;;;;;4960863;28;20035;-89
2024/01/01 04:34:37;;;;;;;65.47;35.35;;;11.60;99.90;;;;;;4994794;28;20066;-88
2024/01/01 04:37:03;;;;;;;58.80;37.03;;;11.70;99.90;;;;;;4995018;28;20031;-88
2024/01/01 04:39:30;;;;;;;71.05;36.33;;;11.70;99.90;;;;;;4994757;28;20035;-87
2024/01/01 04:41:59;;;;;;;58.75;36.40;;;11.80;99.90;;;;;;4978382;28;20101;-87
2024/01/01 04:44:26;;;;;;;71.20;38.65;;;11.80;99.90;;;;;;4947119;28;20039;-88
2024/01/01 04:46:52;;;;;;;73.80;38.85;;;11.80;99.90;;;;;;4959712;28;20423;-88
2024/01/01 04:49:18;;;;;;;67.82;36.38;;;11.90;99.90;;;;;;4958584;28;20081;-88
2024/01/01 04:51:45;;;;;;;62.28;37.58;;;11.90;99.90;;;;;;4958153;28;20030;-87
2024/01/01 04:54:11;;;;;;;68.35;36.65;;;11.80;99.90;;;;;;4958143;29;20114;-87
2024/01/01 04:56:37;;;;;;;53.60;33.85;;;11.80;99.90;;;;;;4957950;28;20027;-88
2024/01/01 04:59:06;;;;;;;58.35;35.60;;;11.70;99.90;;;;;;4954516;28;20123;-88
2024/01/01 05:01:36;;;;;;;67.88;34.88;;;11.70;99.90;;;;;;4938525;29;20087;-88
2024/01/01 05:04:02;;;;;;;52.97;33.83;;;11.50;99.90;;;;;;4970509;28;20086;-88
2024/01/01 05:06:29;;;;;;;64.30;34.17;;;11.40;99.90;;;;;;4938221;29;20024;-87
2024/01/01 05:08:55;;;;;;;55.92;33.17;;;11.40;99.90;;;;;;4969974;28;20031;-88
2024/01/01 05:11:21;;;;;;;63.13;33.65;;;11.30;99.90;;;;;;4940811;29;20039;-87
2024/01/01 05:13:48;;;;;;;65.88;33.90;;;11.20;99.90;;;;;;4973026;28;20081;-88
2024/01/01 05:16:20;;;;;;;56.35;33.00;;;11.20;99.90;;;;;;4973162;28;20034;-87
2024/01/01 05:18:47;;;;;;;64.88;32.08;;;11.10;99.90;;;;;;4956416;28;20031;-90
2024/01/01 05:21:13;;;;;;;63.88;31.90;;;11.00;99.90;;;;;;4972916;28;20031;-88
2024/01/01 05:23:39;;;;;;;68.55;33.67;;;10.90;99.90;;;;;;4972985;28;20043;-89
2024/01/01 05:26:09;;;;;;;61.67;31.63;;;10.90;99.90;;;;;;4973080;28;20030;-87
2024/01/01 05:28:36;;;;;;;65.22;31.23;;;10.80;99.90;;;;;;4972761;28;20123;-87
2024/01/01 05:31:02;;;;;;;56.85;30.77;;;10.70;99.90;;;;;;4972786;28;20034;-88
2024/01/01 05:33:28;;;;;;;58.25;30.00;;;10.60;99.90;;;;;;4962850;28;20038;-89
2024/01/01 05:35:57;;;;;;;78.25;30.85;;;10.60;99.90;;;;;;4979155;28;20393;-88
2024/01/01 05:38:24;;;;;;;54.92;29.42;;;10.60;99.90;;;;;;4979320;28;20387;-87
2024/01/01 05:40:50;;;;;;;47.42;28.52;;;10.60;99.90;;;;;;4979110;28;20049;-88
2024/01/01 05:43:21;;;;;;;50.72;29.80;;;10.60;99.90;;;;;;4978115;28;20030;-88
2024/01/01 05:45:51;;;;;;;55.92;28.75;;;10.60;99.90;;;;;;4979890;28;20484;-88
2024/01/01 05:48:17;;;;;;;101.75;29.63;;;10.50;99.90;;;;;;4979207;28;20030;-89
2024/01/01 05:50:43;;;;;;;82.82;28.50;;;10.50;99.90;;;;;;4978832;28;20062;-87
2024/01/01 05:53:09;;;;;;;56.45;29.20;;;10.40;99.90;;;;;;4978571;28;20101;-88
2024/01/01 05:55:36;;;;;;;98.22;30.23;;;10.60;99.90;;;;;;4978616;28;20037;-87
2024/01/01 05:58:02;;;;;;;41.67;26.55;;;10.50;99.90;;;;;;4978588;28;20504;-87
2024/01/01 06:00:36;;;;;;;107.30;30.15;;;10.50;99.90;;;;;;4992485;28;20034;-88
2024/01/01 06:03:04;;;;;;;;;;;10.50;99.90;;;;;;4978914;28;20113;-88
2024/01/01 06:05:35;;;;;;;41.38;27.00;;;10.50;99.90;;;;;;4978357;28;19910;-87
2024/01/01 06:08:05;;;;;;;49.67;28.25;;;10.50;99.90;;;;;;4962462;28;20499;-87
2024/01/01 06:10:32;;;;;;;61.85;27.20;;;10.50;99.90;;;;;;4978913;28;20090;-89
2024/01/01 06:12:59;;;;;;;93.10;29.08;;;10.50;99.90;;;;;;4978471;28;20052;-89
2024/01/01 06:15:28;;;;;;;47.50;26.88;;;10.50;99.90;;;;;;4978753;28;20038;-89
2024/01/01 06:17:58;;;;;;;52.80;28.33;;;10.50;99.90;;;;;;4978572;28;20502;-89
2024/01/01 06:20:24;;;;;;;48.78;26.45;;;10.50;99.90;;;;;;4989203;28;20026;-89
2024/01/01 06:22:50;;;;;;;59.97;26.92;;;10.40;99.90;;;;;;4985460;28;20110;-88
2024/01/01 06:25:17;;;;;;;58.30;26.92;;;10.40;99.90;;;;;;4965132;28;20046;-88
2024/01/01 06:27:44;;;;;;;43.45;25.77;;;10.30;99.90;;;;;;4958859;28;20051;-89
2024/01/01 06:30:13;;;;;;;44.78;26.02;;;10.30;99.90;;;;;;4958076;28;20030;-88
2024/01/01 06:32:40;;;;;;;41.50;25.00;;;10.20;99.90;;;;;;4958555;28;20027;-88
2024/01/01 06:35:07;;;;;;;37.20;25.35;;;10.20;99.90;;;;;;4961890;28;20085;-88
2024/01/01 06:37:33;;;;;;;34.75;24.67;;;10.20;99.90;;;;;;4977861;28;20027;-88
2024/01/01 06:40:00;;;;;;;40.70;25.98;;;10.20;99.90;;;;;;4977896;28;20081;-88
2024/01/01 06:42:26;;;;;;;41.63;25.38;;;10.10;99.90;;;;;;4976761;28;20030;-88
2024/01/01 06:44:57;;;;;;;44.00;25.05;;;10.00;99.90;;;;;;4977910;28;20499;-88
2024/01/01 06:47:24;;;;;;;87.55;27.50;;;10.00;99.90;;;;;;4978314;28;20104;-89
2024/01/01 06:49:50;;;;;;;46.13;25.27;;;10.00;99.90;;;;;;4961957;28;20045;-88
2024/01/01 06:52:16;;;;;;;45.45;25.17;;;10.10;99.90;;;;;;4962879;28;20034;-89
2024/01/01 06:54:42;;;;;;;61.88;27.10;;;10.20;99.90;;;;;;4961957;28;20488;-86
2024/01/01 06:57:09;;;;;;;95.72;30.92;;;10.30;99.90;;;;;;4983215;28;20034;-88
2024/01/01 06:59:36;;;;;;;93.13;32.13;;;10.40;99.90;;;;;;4984979;28;20019;-89
2024/01/01 07:02:02;;;;;;;77.75;31.60;;;10.50;99.90;;;;;;4981023;28;20488;-88
2024/01/01 07:04:29;;;;;;;123.20;36.67;;;10.70;99.90;;;;;;4971464;28;20031;-87
2024/01/01 07:06:56;;;;;;;95.35;33.90;;;11.00;99.90;;;;;;4960664;29;20408;-90
2024/01/01 07:09:22;;;;;;;50.42;28.85;;;11.10;99.90;;;;;;4954554;29;20043;-88
2024/01/01 07:11:49;;;;;;;35.03;25.48;;;11.30;99.90;;;;;;4954126;28;20079;-88
2024/01/01 07:14:15;;;;;;;42.65;28.17;;;11.50;99.90;;;;;;4951120;29;20024;-89
2024/01/01 07:16:44;;;;;;;33.45;27.13;;;11.60;99.90;;;;;;4951048;28;20134;-88
2024/01/01 07:19:16;;;;;;;27.33;24.52;;;12.20;99.90;;;;;;4951145;28;20032;-88
2024/01/01 07:21:43;;;;;;;37.65;27.50;;;12.50;99.90;;;;;;4951299;28;20043;-88
2024/01/01 07:24:12;;;;;;;33.08;27.85;;;12.60;99.90;;;;;;4954249;28;20038;-88
2024/01/01 07:26:38;;;;;;;40.88;29.23;;;12.60;99.90;;;;;;4954303;29;20105;-89
2024/01/01 07:29:05;;;;;;;33.60;28.58;;;12.40;99.90;;;;;;4954277;29;20583;-89
2024/01/01 07:31:35;;;;;;;40.10;31.50;;;12.40;99.90;;;;;;4954165;29;20059;-90
2024/01/01 07:34:01;;;;;;;31.88;28.38;;;12.60;99.90;;;;;;4953909;28;20035;-88
2024/01/01 07:36:28;;;;;;;28.05;25.35;;;12.60;99.90;;;;;;4954110;29;20445;-87
2024/01/01 07:38:54;;;;;;;25.30;22.85;;;12.90;99.90;;;;;;4961162;28;20518;-88
2024/01/01 07:41:21;;;;;;;21.45;19.50;;;13.30;99.90;;;;;;4978642;28;20030;-87
2024/01/01 07:43:49;;;;;;;21.75;19.75;;;13.60;99.90;;;;;;4981031;28;20042;-88
2024/01/01 07:46:15;;;;;;;22.17;20.13;;;13.90;99.90;;;;;;4981003;28;20049;-88
2024/01/01 07:48:41;;;;;;;22.05;19.95;;;14.10;99.90;;;;;;4964905;28;20037;-88
2024/01/01 07:51:08;;;;;;;25.20;22.40;;;14.40;99.90;;;;;;4980896;28;20057;-89
2024/01/01 07:53:34;;;;;;;27.25;24.55;;;14.50;99.90;;;;;;4980607;28;20110;-87
2024/01/01 07:56:02;;;;;;;27.40;24.55;;;14.60;99.90;;;;;;4980660;28;20035;-89
2024/01/01 07:58:28;;;;;;;29.35;26.27;;;14.80;99.90;;;;;;4980708;28;20514;-88
2024/01/01 08:00:55;;;;;;;30.38;27.58;;;14.90;99.90;;;;;;4980829;28;20057;-88
2024/01/01 08:03:21;;;;;;;33.08;29.88;;;15.20;99.90;;;;;;4980501;28;20027;-88
2024/01/01 08:05:51;;;;;;;34.17;30.98;;;15.30;99.90;;;;;;4980675;28;20038;-88
2024/01/01 08:08:21;;;;;;;34.95;31.52;;;15.40;99.90;;;;;;4980583;28;20034;-88
2024/01/01 08:10:47;;;;;;;34.10;30.95;;;15.50;99.90;;;;;;4996884;28;20045;-88
2024/01/01 08:13:17;;;;;;;33.60;30.52;;;15.70;99.90;;;;;;4974265;28;20073;-88
2024/01/01 08:15:43;;;;;;;32.92;30.02;;;15.80;99.90;;;;;;4960865;28;20042;-88
2024/01/01 08:18:09;;;;;;;32.65;29.55;;;16.10;99.90;;;;;;4961203;28;20539;-88
2024/01/01 08:20:36;;;;;;;31.67;28.83;;;16.20;99.90;;;;;;4977141;28;20030;-88
2024/01/01 08:23:03;;;;;;;31.92;29.02;;;16.30;99.90;;;;;;4980407;28;20025;-88
2024/01/01 08:25:29;;;;;;;35.72;31.90;;;16.30;99.90;;;;;;4980465;28;20084;-88
2024/01/01 08:27:55;;;;;;;33.78;30.45;;;16.30;99.90;;;;;;4980993;28;20023;-88
2024/01/01 08:30:22;;;;;;;34.47;31.27;;;16.20;99.90;;;;;;4977060;28;20179;-88
2024/01/01 08:32:48;;;;;;;32.45;29.50;;;16.30;99.90;;;;;;4944430;28;20027;-88
2024/01/01 08:35:15;;;;;;;31.15;28.48;;;16.30;99.90;;;;;;4957429;28;20126;-88
2024/01/01 08:37:42;;;;;;;31.23;28.52;;;16.50;99.90;;;;;;4957412;29;20031;-88
2024/01/01 08:40:11;;;;;;;28.92;26.42;;;16.30;99.90;;;;;;4957230;29;20042;-88
2024/01/01 08:42:37;;;;;;;29.10;26.23;;;16.20;99.90;;;;;;4957289;28;20023;-88
2024/01/01 08:45:04;;;;;;;30.40;27.65;;;16.20;99.90;;;;;;4957281;28;20036;-88
2024/01/01 08:47:31;;;;;;;29.27;26.58;;;16.30;99.90;;;;;;4957336;28;20082;-89
2024/01/01 08:49:58;;;;;;;28.30;25.67;;;16.40;99.90;;;;;;4975077;28;20455;-89
2024/01/01 08:52:27;;;;;;;29.10;26.50;;;16.40;99.90;;;;;;4975528;28;20031;-89
2024/01/01 08:54:54;;;;;;;28.25;25.88;;;16.50;99.90;;;;;;4976639;28;20030;-86
2024/01/01 08:57:20;;;;;;;29.42;26.83;;;16.50;99.90;;;;;;4976311;28;20034;-88
2024/01/01 08:59:46;;;;;;;29.25;26.85;;;16.50;99.90;;;;;;4976496;28;20041;-88
2024/01/01 09:02:13;;;;;;;29.77;27.27;;;16.60;99.90;;;;;;4976306;28;20488;-86
2024/01/01 09:04:39;;;;;;;29.25;26.55;;;16.60;99.90;;;;;;4976086;28;20074;-87
2024/01/01 09:07:06;;;;;;;29.10;26.58;;;16.70;99.90;;;;;;4976172;28;20118;-86
2024/01/01 09:09:32;;;;;;;28.33;25.60;;;16.70;99.90;;;;;;4976363;28;20041;-88
2024/01/01 09:11:59;;;;;;;29.42;26.63;;;16.80;99.90;;;;;;4957504;28;20114;-88
2024/01/01 09:14:25;;;;;;;30.35;27.25;;;17.00;99.90;;;;;;4956804;29;20031;-86
2024/01/01 09:16:52;;;;;;;27.45;25.13;;;17.00;99.90;;;;;;4972749;28;20028;-86
2024/01/01 09:19:20;;;;;;;26.90;24.50;;;17.00;99.90;;;;;;4956584;29;20390;-89
2024/01/01 09:21:46;;;;;;;26.23;23.80;;;17.00;99.90;;;;;;4956234;29;20027;-87
2024/01/01 09:24:13;;;;;;;25.95;23.65;;;17.00;99.90;;;;;;4956490;28;20421;-90
2024/01/01 09:26:40;;;;;;;26.23;23.60;;;17.10;99.90;;;;;;4984753;28;20041;-88
2024/01/01 09:29:06;;;;;;;24.52;22.52;;;17.20;99.90;;;;;;4959872;28;20114;-86
2024/01/01 09:31:33;;;;;;;25.75;23.25;;;17.30;99.90;;;;;;4975491;28;20023;-79
2024/01/01 09:34:03;;;;;;;27.40;24.55;;;17.30;99.90;;;;;;4976325;28;20048;-80
2024/01/01 09:36:37;;;;;;;25.77;23.25;;;17.40;99.90;;;;;;4936046;29;20034;-79
2024/01/01 09:39:06;;;;;;;26.35;23.98;;;17.50;99.90;;;;;;4954057;29;20062;-80
2024/01/01 09:41:34;;;;;;;26.10;23.73;;;17.60;99.90;;;;;;4947690;28;20087;-80
2024/01/01 09:44:02;;;;;;;25.80;23.50;;;17.70;99.90;;;;;;4936884;29;20127;-80
2024/01/01 09:46:33;;;;;;;25.92;23.83;;;17.80;99.90;;;;;;4943359;29;20023;-79
2024/01/01 09:49:03;;;;;;;24.70;22.63;;;17.80;99.90;;;;;;4954710;29;20103;-80
2024/01/01 09:51:30;;;;;;;26.55;23.95;;;17.70;99.90;;;;;;4970780;28;20110;-79
2024/01/01 09:53:56;;;;;;;25.27;23.13;;;17.60;99.90;;;;;;4954699;28;20049;-80
2024/01/01 09:56:23;;;;;;;26.92;24.73;;;17.80;99.90;;;;;;4954194;29;20026;-79
2024/01/01 09:58:49;;;;;;;25.08;23.08;;;17.70;99.90;;;;;;4954566;28;20036;-79
2024/01/01 10:01:16;;;;;;;25.35;22.98;;;17.60;99.90;;;;;;4955969;28;20027;-82
2024/01/01 10:03:43;;;;;;;25.90;23.70;;;17.60;99.90;;;;;;4956069;28;20035;-85
2024/01/01 10:06:13;;;;;;;25.17;23.10;;;17.60;99.90;;;;;;4970315;28;20093;-87
2024/01/01 10:08:39;;;;;;;24.70;22.73;;;17.80;99.90;;;;;;4971434;28;20575;-86
2024/01/01 10:11:20;;;;;;;24.88;22.63;;;17.90;99.90;;;;;;4941800;28;20080;-87
2024/01/01 10:13:49;;;;;;;26.30;23.90;;;17.80;99.90;;;;;;4935270;29;20102;-83
2024/01/01 10:16:26;;;;;;;25.20;23.05;;;17.90;99.90;;;;;;4935557;29;20083;-84
2024/01/01 10:18:58;;;;;;;26.13;23.70;;;17.80;99.90;;;;;;4935356;29;20027;-82
2024/01/01 10:21:29;;;;;;;26.08;23.83;;;17.90;99.90;;;;;;4965374;28;20031;-84
2024/01/01 10:23:56;;;;;;;27.05;24.58;;;17.90;99.90;;;;;;4969924;28;20598;-85
2024/01/01 10:26:23;;;;;;;26.67;24.48;;;17.80;99.90;;;;;;4953746;28;20098;-84
2024/01/01 10:28:49;;;;;;;25.48;23.52;;;17.90;99.90;;;;;;4970058;28;20035;-84
2024/01/01 10:31:16;;;;;;;26.58;24.30;;;18.00;99.90;;;;;;4954160;28;20489;-83
2024/01/01 10:33:44;;;;;;;25.20;23.25;;;18.10;99.90;;;;;;4942940;28;20393;-84
2024/01/01 10:36:14;;;;;;;26.38;24.38;;;18.20;99.90;;;;;;4952071;28;20042;-84
2024/01/01 10:38:43;;;;;;;26.30;24.15;;;18.30;99.90;;;;;;4960557;28;20113;-84
2024/01/01 10:41:12;;;;;;;25.73;23.67;;;18.40;99.90;;;;;;4972741;28;20109;-83
2024/01/01 10:43:43;;;;;;;25.70;23.52;;;18.50;99.90;;;;;;4992444;28;20037;-83
2024/01/01 10:46:13;;;;;;;25.77;23.75;;;18.60;99.90;;;;;;4987289;28;20049;-84
2024/01/01 10:48:43;;;;;;;25.45;23.65;;;18.60;99.90;;;;;;4957057;28;20476;-83
2024/01/01 10:51:31;;;;;;;25.40;23.60;;;18.50;99.90;;;;;;4975720;28;20494;-82
2024/01/01 10:54:43;;;;;;;25.45;23.65;;;18.50;99.90;;;;;;4992932;28;20081;-82
2024/01/01 10:57:21;;;;;;;27.90;25.77;;;18.60;99.90;;;;;;4993134;28;20030;-81
2024/01/01 11:00:08;;;;;;;27.67;25.77;;;18.60;99.90;;;;;;4977333;28;20035;-81
2024/01/01 11:02:35;;;;;;;28.00;26.00;;;18.60;99.90;;;;;;4989248;28;20110;-82
2024/01/01 11:05:09;;;;;;;27.67;25.60;;;18.40;99.90;;;;;;4989295;28;20035;-83
2024/01/01 11:07:54;;;;;;;27.20;25.30;;;18.40;99.90;;;;;;4989425;28;20035;-81
2024/01/01 11:10:54;;;;;;;26.13;24.35;;;18.50;99.90;;;;;;4976277;28;20038;-82
2024/01/01 11:13:27;;;;;;;24.65;22.85;;;18.60;99.90;;;;;;4935591;28;20038;-82
2024/01/01 11:16:04;;;;;;;23.70;22.10;;;18.50;99.90;;;;;;4976639;28;20050;-82
2024/01/01 11:18:35;;;;;;;24.33;22.63;;;18.20;99.90;;;;;;4980290;28;20026;-82
2024/01/01 11:21:06;;;;;;;23.77;22.05;;;18.00;99.90;;;;;;4994223;28;20030;-82
2024/01/01 11:23:46;;;;;;;23.83;22.10;;;18.00;99.90;;;;;;4981124;28;20030;-80
2024/01/01 11:26:32;;;;;;;24.55;22.70;;;18.00;99.90;;;;;;4980154;28;20026;-81
2024/01/01 11:29:03;;;;;;;25.75;23.52;;;18.00;99.90;;;;;;4980289;28;20073;-81
2024/01/01 11:31:33;;;;;;;23.50;21.83;;;17.90;99.90;;;;;;4980343;28;20034;-82
2024/01/01 11:34:08;;;;;;;24.15;22.48;;;17.70;99.90;;;;;;4976694;28;20051;-82
2024/01/01 11:36:40;;;;;;;24.40;22.58;;;17.60;99.90;;;;;;4993918;28;20174;-82
2024/01/01 11:39:08;;;;;;;23.60;21.90;;;17.60;99.90;;;;;;4982384;28;20042;-82
2024/01/01 11:41:35;;;;;;;24.73;22.85;;;17.70;99.90;;;;;;4976872;28;20392;-81
2024/01/01 11:44:12;;;;;;;23.90;22.05;;;17.80;99.90;;;;;;4992836;28;20061;-82
2024/01/01 11:46:40;;;;;;;24.50;22.65;;;17.70;99.90;;;;;;4992783;28;20030;-82
2024/01/01 11:49:10;;;;;;;23.23;21.65;;;17.70;99.90;;;;;;4975725;28;20030;-82
2024/01/01 11:52:00;;;;;;;23.98;22.02;;;17.60;99.90;;;;;;4956320;28;20123;-83
2024/01/01 11:54:27;;;;;;;24.02;22.27;;;17.70;99.90;;;;;;4938100;29;20036;-82
2024/01/01 11:56:56;;;;;;;28.83;26.38;;;17.60;99.90;;;;;;4938119;29;20023;-82
2024/01/01 11:59:24;;;;;;;26.63;24.23;;;17.40;99.90;;;;;;4960144;28;20027;-82
2024/01/01 12:01:51;;;;;;;25.67;23.00;;;17.40;99.90;;;;;;4967149;28;20024;-82
2024/01/01 12:04:18;;;;;;;25.45;23.48;;;17.30;99.90;;;;;;4953830;29;20576;-83
2024/01/01 12:06:52;;;;;;;24.67;22.70;;;17.30;99.90;;;;;;4938001;29;20032;-83
2024/01/01 12:09:20;;;;;;;24.75;22.48;;;17.40;99.90;;;;;;4942666;28;20066;-82
2024/01/01 12:11:47;;;;;;;24.83;22.80;;;17.40;99.90;;;;;;4992241;28;20046;-82
2024/01/01 12:14:14;;;;;;;25.15;23.02;;;17.50;99.90;;;;;;4985991;28;20031;-82
2024/01/01 12:16:42;;;;;;;25.00;22.85;;;17.70;99.90;;;;;;4956997;29;20051;-82
2024/01/01 12:19:09;;;;;;;24.50;22.70;;;17.80;99.90;;;;;;4973977;28;20035;-82
2024/01/01 12:21:41;;;;;;;24.75;22.77;;;17.90;99.90;;;;;;4992527;28;20050;-82
2024/01/01 12:24:13;;;;;;;24.23;22.23;;;18.00;99.90;;;;;;4991976;28;20034;-83
2024/01/01 12:26:40;;;;;;;26.25;23.98;;;17.80;99.90;;;;;;4976850;28;20035;-82
2024/01/01 12:29:17;;;;;;;24.40;22.60;;;17.80;99.90;;;;;;4956961;28;20051;-82
2024/01/01 12:31:46;;;;;;;27.70;25.05;;;17.60;99.90;;;;;;4992162;28;20081;-84
2024/01/01 12:34:22;;;;;;;29.02;26.23;;;17.60;99.90;;;;;;4975631;28;20082;-82